Alsey, Illinois
Current Conditions -  °F | °C
As of 3:35 AM on Saturday 01 Nov 2014 (Local Time) from KIJX Reporting Station
Clear Clear  
Wind Chill: 21°   Ceiling: Unl
Heat Index: 28°   Visibility: 10mi
Dew Point: 22°   Wind: 7mph
Humidity: 76%   Direction: 330°NNW
Pressure: 30.43"   Gusts: NA
Location:  39.56°N, 90.43°W
Report Text: KIJX 010835Z AUTO 33006KT 10SM CLR M02/M06 A3043 RMK AO2 T10201057
Loading
Personal Weather Stations






























Interactive Weather Map
Tropical Storm Tracking
New forecast layout! Learn more

10-Day Weather Forecast

Advertisements
Track Severe Weather on mobile